createdAt,value
2022-09-23T00:04:18.849Z,9.43
2022-09-23T00:09:12.689Z,9.10
2022-09-23T00:14:05.358Z,9.70
2022-09-23T00:18:57.897Z,10.60
2022-09-23T00:23:50.400Z,9.17
2022-09-23T00:28:44.725Z,10.53
2022-09-23T00:33:37.518Z,9.80
2022-09-23T00:38:30.180Z,10.23
2022-09-23T00:43:37.536Z,12.00
2022-09-23T00:48:31.328Z,11.17
2022-09-23T00:53:26.566Z,13.27
2022-09-23T00:58:20.963Z,13.50
2022-09-23T01:03:13.921Z,11.77
2022-09-23T01:08:08.262Z,13.27
2022-09-23T01:13:07.381Z,15.73
2022-09-23T01:18:04.422Z,17.27
2022-09-23T01:23:02.424Z,14.93
2022-09-23T01:28:06.728Z,18.47
2022-09-23T01:33:10.526Z,16.87
2022-09-23T01:38:08.702Z,20.23
2022-09-23T01:43:05.545Z,17.47
2022-09-23T01:48:00.789Z,17.60
2022-09-23T01:52:56.264Z,16.80
2022-09-23T01:57:52.893Z,15.93
2022-09-23T02:02:49.532Z,19.27
2022-09-23T02:07:44.985Z,17.13
2022-09-23T02:12:40.277Z,18.90
2022-09-23T02:17:34.969Z,19.87
2022-09-23T02:22:29.331Z,17.37
2022-09-23T02:27:25.749Z,20.47
2022-09-23T02:32:21.971Z,21.37
2022-09-23T02:37:20.978Z,20.90
2022-09-23T02:42:14.838Z,19.27
2022-09-23T02:47:07.644Z,22.00
2022-09-23T02:52:04.881Z,19.67
2022-09-23T02:56:57.829Z,21.90
2022-09-23T03:01:57.926Z,22.97
2022-09-23T03:06:56.787Z,23.20
2022-09-23T03:11:53.686Z,26.07
2022-09-23T03:16:48.804Z,22.07
2022-09-23T03:21:44.946Z,21.50
2022-09-23T03:26:38.636Z,27.30
2022-09-23T03:31:33.069Z,25.80
2022-09-23T03:36:45.352Z,28.50
2022-09-23T03:41:39.377Z,26.00
2022-09-23T03:46:35.470Z,32.67
2022-09-23T03:51:27.926Z,27.73
2022-09-23T03:56:20.408Z,25.90
2022-09-23T04:01:14.711Z,23.20
2022-09-23T04:06:09.210Z,26.60
2022-09-23T04:11:02.112Z,26.60
2022-09-23T04:15:54.634Z,26.67
2022-09-23T04:20:47.118Z,27.00
2022-09-23T04:25:46.133Z,25.00
2022-09-23T04:30:41.404Z,31.70
2022-09-23T04:35:36.733Z,30.07
2022-09-23T04:40:32.549Z,25.30
2022-09-23T04:45:26.620Z,26.83
2022-09-23T04:50:19.259Z,26.17
2022-09-23T04:55:11.735Z,28.00
2022-09-23T05:00:04.715Z,24.37
2022-09-23T05:04:58.513Z,28.27
2022-09-23T05:09:50.992Z,26.13
2022-09-23T05:14:43.453Z,26.70
2022-09-23T05:19:35.946Z,27.23
2022-09-23T05:24:29.780Z,31.77
2022-09-23T05:29:22.242Z,26.40
2022-09-23T05:34:14.719Z,33.30
2022-09-23T05:39:07.729Z,24.90
2022-09-23T05:44:02.061Z,30.40
2022-09-23T05:48:59.837Z,27.70
2022-09-23T05:53:54.622Z,25.30
2022-09-23T05:58:50.015Z,16.67
2022-09-23T06:03:46.704Z,15.37
2022-09-23T06:08:39.421Z,13.13
2022-09-23T06:13:31.893Z,11.67
2022-09-23T06:18:24.382Z,12.60
2022-09-23T06:23:18.377Z,14.40
2022-09-23T06:28:12.449Z,12.10
2022-09-23T06:33:04.994Z,12.03
2022-09-23T06:37:57.964Z,18.13
2022-09-23T06:42:57.620Z,19.40
2022-09-23T06:47:56.122Z,17.97
2022-09-23T06:52:51.246Z,13.80
2022-09-23T06:57:43.693Z,15.13
2022-09-23T07:02:37.624Z,9.67
2022-09-23T07:07:31.251Z,8.70
2022-09-23T07:12:23.757Z,11.23
2022-09-23T07:17:16.244Z,13.37
2022-09-23T07:22:10.237Z,17.60
2022-09-23T07:27:02.866Z,11.23
2022-09-23T07:32:05.789Z,13.93
2022-09-23T07:37:02.162Z,10.67
2022-09-23T07:41:56.025Z,14.60
2022-09-23T07:46:49.413Z,13.70
2022-09-23T07:51:42.887Z,10.20
2022-09-23T07:56:35.844Z,9.03
2022-09-23T08:01:31.483Z,10.00
2022-09-23T08:06:24.842Z,9.87
2022-09-23T08:11:17.688Z,9.10
2022-09-23T08:16:10.597Z,10.00
2022-09-23T08:21:04.940Z,13.43
2022-09-23T08:25:59.503Z,7.43
2022-09-23T08:30:52.312Z,8.03
2022-09-23T08:35:45.020Z,8.47
2022-09-23T08:40:40.111Z,10.90
2022-09-23T08:45:32.637Z,15.53
2022-09-23T08:50:28.338Z,7.50
2022-09-23T08:55:21.986Z,7.80
2022-09-23T09:00:20.242Z,7.07
2022-09-23T09:05:13.689Z,7.83
2022-09-23T09:10:11.439Z,7.33
2022-09-23T09:15:07.789Z,7.17
2022-09-23T09:20:05.305Z,6.83
2022-09-23T09:25:04.000Z,11.33
2022-09-23T09:29:58.467Z,7.20
2022-09-23T09:34:54.678Z,7.80
2022-09-23T09:39:49.109Z,7.00
2022-09-23T09:44:43.269Z,7.40
2022-09-23T09:49:42.347Z,8.63
2022-09-23T09:54:34.788Z,6.20
2022-09-23T09:59:29.240Z,6.60
2022-09-23T10:04:23.584Z,5.23
2022-09-23T10:09:19.176Z,6.57
2022-09-23T10:14:13.365Z,5.00
2022-09-23T10:19:12.303Z,4.60
2022-09-23T10:24:06.099Z,4.63
2022-09-23T10:28:59.626Z,8.63
2022-09-23T10:33:54.584Z,5.30
2022-09-23T10:38:49.883Z,5.77
2022-09-23T10:44:12.527Z,4.60
2022-09-23T10:49:12.245Z,5.40
2022-09-23T10:54:11.978Z,5.63
2022-09-23T10:59:22.438Z,5.23
2022-09-23T11:04:25.294Z,4.50
2022-09-23T11:09:27.236Z,5.10
2022-09-23T11:14:30.503Z,5.77
2022-09-23T11:19:33.745Z,6.97
2022-09-23T11:24:39.266Z,9.67
2022-09-23T11:29:49.683Z,6.50
2022-09-23T11:35:00.719Z,5.60
2022-09-23T11:39:58.672Z,6.53
2022-09-23T11:44:54.113Z,6.00
2022-09-23T11:49:50.564Z,6.27
2022-09-23T11:54:46.198Z,5.50
2022-09-23T11:59:42.121Z,7.20
2022-09-23T12:04:38.183Z,5.73
2022-09-23T12:09:57.717Z,7.30
2022-09-23T12:14:56.733Z,5.50
2022-09-23T12:20:04.916Z,6.67
2022-09-23T12:24:58.356Z,5.30
2022-09-23T12:29:55.181Z,6.03
2022-09-23T12:34:49.179Z,6.30
2022-09-23T12:39:41.766Z,5.00
2022-09-23T12:44:36.814Z,5.80
2022-09-23T12:49:37.205Z,6.43
2022-09-23T12:54:30.012Z,8.70
2022-09-23T12:59:25.190Z,6.53
2022-09-23T13:04:53.291Z,29.03
2022-09-23T13:09:49.256Z,7.73
2022-09-23T13:14:45.011Z,6.20
2022-09-23T13:19:47.752Z,6.23
2022-09-23T13:24:44.177Z,8.17
2022-09-23T13:29:39.089Z,10.50
2022-09-23T13:34:34.526Z,7.00
2022-09-23T13:39:29.929Z,8.50
2022-09-23T13:44:22.479Z,7.17
2022-09-23T13:49:21.753Z,6.83
2022-09-23T13:54:28.803Z,6.70
2022-09-23T13:59:25.604Z,7.97
2022-09-23T14:04:23.918Z,9.00
2022-09-23T14:09:16.497Z,6.90
2022-09-23T14:14:09.540Z,7.40
2022-09-23T14:19:03.701Z,8.40
2022-09-23T14:23:56.661Z,5.83
2022-09-23T14:28:49.417Z,8.03
2022-09-23T14:33:43.161Z,9.30
2022-09-23T14:38:50.998Z,7.27
2022-09-23T14:43:48.873Z,7.20
2022-09-23T14:48:41.697Z,8.50
2022-09-23T14:53:35.683Z,10.63
2022-09-23T14:58:29.642Z,7.07
2022-09-23T15:03:22.247Z,8.67
2022-09-23T15:08:16.348Z,5.20
2022-09-23T15:13:10.004Z,7.50
2022-09-23T15:18:08.812Z,6.80
2022-09-23T15:23:01.714Z,7.43
2022-09-23T15:28:05.792Z,7.70
2022-09-23T15:32:58.551Z,6.57
2022-09-23T15:37:53.998Z,8.07
2022-09-23T15:42:51.470Z,5.93
2022-09-23T15:47:45.149Z,7.63
2022-09-23T15:52:37.989Z,7.93
2022-09-23T15:57:31.845Z,12.40
2022-09-23T16:02:24.791Z,11.23
2022-09-23T16:07:17.563Z,7.37
2022-09-23T16:12:11.625Z,9.20
2022-09-23T16:17:06.477Z,10.20
2022-09-23T16:21:58.978Z,8.47
2022-09-23T16:26:51.620Z,10.03
2022-09-23T16:31:44.158Z,13.03
2022-09-23T16:36:39.540Z,10.87
2022-09-23T16:41:32.463Z,10.27
2022-09-23T16:46:25.096Z,6.60
2022-09-23T16:51:18.749Z,9.37
2022-09-23T16:56:13.082Z,7.67
2022-09-23T17:01:22.991Z,9.27
2022-09-23T17:06:16.034Z,7.50
2022-09-23T17:11:09.079Z,8.23
2022-09-23T17:16:03.388Z,19.77
2022-09-23T17:20:59.806Z,12.23
2022-09-23T17:25:52.432Z,13.37
2022-09-23T17:30:44.926Z,12.40
2022-09-23T17:35:41.040Z,10.93
2022-09-23T17:40:35.773Z,10.17
2022-09-23T17:45:28.612Z,12.30
2022-09-23T17:50:22.172Z,13.37
2022-09-23T17:55:16.703Z,11.13
2022-09-23T18:00:10.361Z,11.93
2022-09-23T18:05:06.045Z,9.97
2022-09-23T18:09:58.529Z,13.57
2022-09-23T18:14:52.385Z,11.70
2022-09-23T18:19:49.088Z,14.73
2022-09-23T18:24:42.354Z,12.70
2022-09-23T18:29:35.221Z,8.60
2022-09-23T18:34:29.377Z,13.40
2022-09-23T18:39:21.884Z,12.10
2022-09-23T18:44:14.591Z,15.17
2022-09-23T18:49:24.479Z,10.90
2022-09-23T18:54:19.313Z,10.17
2022-09-23T18:59:14.431Z,9.23
2022-09-23T19:04:07.128Z,16.90
2022-09-23T19:08:59.633Z,15.50
2022-09-23T19:13:57.560Z,13.30
2022-09-23T19:18:50.275Z,12.17
2022-09-23T19:23:47.500Z,14.00
2022-09-23T19:28:40.471Z,10.97
2022-09-23T19:33:34.340Z,10.73
2022-09-23T19:38:28.056Z,16.73
2022-09-23T19:43:21.091Z,14.10
2022-09-23T19:48:13.556Z,12.20
2022-09-23T19:53:07.928Z,15.67
2022-09-23T19:58:00.675Z,11.10
2022-09-23T20:02:54.512Z,10.23
2022-09-23T20:07:47.076Z,14.63
2022-09-23T20:12:42.329Z,10.80
2022-09-23T20:17:35.180Z,12.20
2022-09-23T20:22:32.933Z,12.13
2022-09-23T20:27:26.200Z,10.90
2022-09-23T20:32:20.576Z,10.67
2022-09-23T20:37:13.235Z,11.53
2022-09-23T20:42:07.970Z,15.80
2022-09-23T20:47:00.636Z,10.20
2022-09-23T20:51:54.626Z,13.50
2022-09-23T20:56:47.352Z,16.00
2022-09-23T21:01:40.811Z,14.17
2022-09-23T21:06:34.944Z,14.57
2022-09-23T21:11:29.073Z,10.70
2022-09-23T21:16:22.701Z,13.00
2022-09-23T21:21:17.200Z,12.67
2022-09-23T21:26:10.968Z,14.77
2022-09-23T21:31:06.178Z,14.13
2022-09-23T21:36:03.362Z,14.90
2022-09-23T21:40:58.481Z,11.17
2022-09-23T21:45:56.401Z,10.40
2022-09-23T21:50:55.912Z,9.60
2022-09-23T21:55:48.829Z,10.27
2022-09-23T22:00:41.432Z,9.93
2022-09-23T22:05:34.060Z,10.40
2022-09-23T22:10:27.949Z,10.07
2022-09-23T22:15:20.461Z,14.23
2022-09-23T22:20:12.930Z,13.43
2022-09-23T22:25:06.022Z,10.53
2022-09-23T22:30:17.478Z,8.37
2022-09-23T22:35:10.960Z,8.30
2022-09-23T22:40:03.862Z,7.83
2022-09-23T22:44:56.415Z,9.37
2022-09-23T22:49:55.369Z,12.63
2022-09-23T22:54:47.932Z,9.07
2022-09-23T22:59:40.422Z,8.80
2022-09-23T23:04:33.507Z,9.60
2022-09-23T23:09:27.359Z,8.90
2022-09-23T23:14:20.124Z,10.83
2022-09-23T23:19:14.144Z,10.00
2022-09-23T23:24:07.452Z,8.47
2022-09-23T23:29:01.663Z,9.40
2022-09-23T23:33:54.524Z,8.30
2022-09-23T23:38:47.952Z,9.50
2022-09-23T23:43:40.765Z,9.40
2022-09-23T23:48:35.318Z,13.10
2022-09-23T23:53:30.658Z,11.73
2022-09-23T23:58:23.227Z,9.50
